African Teist — 3EVP5 — position and weather

sailwx.info

Track history (hours):
 
Tides and Currents Weather Stations Pressure Air Temp Water Temp Dewpoint Dewpoint Depression Visibility Wind Speed Wind Dir Waves Ship Positions

African Teist

Last reported at 2017-Nov-16 04:57 UTC. Time now 2017-Nov-23 03:55 UTC.
Position N 46°18' W 125°38'.

Length 179 m; draft 10 m.

Type: Cargo ship. MMSI: 354527000.

Date/timePositionNaut miles runAvg speedWind from/ knotsBaromVisibWave heightAir tempDewpointWater temp
2017-Nov-16 04:57N 46°18' W 125°38'4 9.0
2017-Nov-16 04:30N 46°18' W 125°32'5 9.0
2017-Nov-16 04:00N 46°18' W 125°26'4 8.8
2017-Nov-16 03:30N 46°17' W 125°19'4 8.4
2017-Nov-16 03:00N 46°17' W 125°13'4 8.4
2017-Nov-16 02:30N 46°16' W 125°07'4 8.2
2017-Nov-16 02:00N 46°16' W 125°01'4 7.9
2017-Nov-16 01:30N 46°16' W 124°56'4 7.9
2017-Nov-16 01:01N 46°16' W 124°50'4 7.4
2017-Nov-16 00:30N 46°15' W 124°45'4 7.5
2017-Nov-16 00:00N 46°15' W 124°39'4 7.4
2017-Nov-15 23:30N 46°15' W 124°34'4 7.3
2017-Nov-15 23:00N 46°15' W 124°29'4 7.1
2017-Nov-15 22:30N 46°14' W 124°24'4 7.7
2017-Nov-15 22:01N 46°13' W 124°18'5 7.7
2017-Nov-15 21:19N 46°13' W 124°11'2 7.0
2017-Nov-15 21:01N 46°14' W 124°08'4 8.9
2017-Nov-15 20:30N 46°16' W 124°02'510.9
2017-Nov-15 20:00N 46°12' W 123°56'5 7.8
2017-Nov-15 19:20N 46°12' W 123°48'4 9.1
2017-Nov-15 18:53N 46°14' W 123°43'4 9.3
2017-Nov-15 18:30N 46°16' W 123°38'5 9.6
2017-Nov-15 18:00N 46°16' W 123°31'5 8.1
2017-Nov-15 17:25N 46°14' W 123°25'4 9.6
2017-Nov-15 17:00N 46°10' W 123°24'1016.4
2017-Nov-15 16:25N 46°11' W 123°11'0 1.0
2017-Nov-15 16:01N 46°11' W 123°10'611.2
2017-Nov-15 15:30N 46°09' W 123°03'511.0
2017-Nov-15 15:00N 46°06' W 122°56'1 1.1
2017-Nov-15 14:28N 46°05' W 122°56'0 0.2
2017-Nov-15 13:58N 46°05' W 122°56'0 0.0
2017-Nov-15 13:28N 46°05' W 122°56'0 0.0
2017-Nov-15 12:16N 46°05' W 122°56'0 0.0
2017-Nov-15 11:52N 46°05' W 122°56'0 0.0
2017-Nov-15 11:28N 46°05' W 122°56'0 0.0
2017-Nov-15 10:58N 46°05' W 122°56'0 0.0
2017-Nov-15 10:10N 46°05' W 122°56'0 0.2
2017-Nov-15 09:58N 46°05' W 122°56'0 0.0
2017-Nov-15 09:25N 46°05' W 122°56'0 0.0
2017-Nov-15 08:58N 46°05' W 122°56'0 0.1
2017-Nov-15 08:22N 46°05' W 122°56'0 0.1
2017-Nov-15 07:58N 46°05' W 122°56'0 0.1
2017-Nov-15 07:25N 46°05' W 122°56'0 0.0
2017-Nov-15 06:52N 46°05' W 122°56'0 0.0
2017-Nov-15 06:28N 46°05' W 122°56'0 0.0
2017-Nov-15 05:58N 46°05' W 122°56'0 0.0
2017-Nov-15 05:25N 46°05' W 122°56'0 0.0
2017-Nov-15 04:55N 46°05' W 122°56'0 0.0
2017-Nov-15 04:28N 46°05' W 122°56'0 0.0
2017-Nov-15 03:52N 46°05' W 122°56'0 0.0
2017-Nov-15 03:19N 46°05' W 122°56'0 0.0
2017-Nov-15 02:52N 46°05' W 122°56'0 0.0
2017-Nov-15 02:01N 46°05' W 122°56'0 0.1
2017-Nov-15 01:58N 46°05' W 122°56'0 0.1
2017-Nov-15 01:22N 46°05' W 122°56'0 0.1
2017-Nov-15 00:58N 46°05' W 122°56'0 0.1
2017-Nov-15 00:28N 46°05' W 122°56'0 0.0
2017-Nov-14 23:37N 46°05' W 122°56'0 0.0
2017-Nov-14 23:25N 46°05' W 122°56'0 0.0
2017-Nov-14 22:58N 46°05' W 122°56'0 0.1
2017-Nov-14 22:28N 46°05' W 122°56'0 0.1
2017-Nov-14 22:00N 46°05' W 122°56'0 0.4
2017-Nov-14 21:30N 46°05' W 122°55'1 2.5
2017-Nov-14 21:00N 46°05' W 122°54'4 8.0
2017-Nov-14 20:30N 46°01' W 122°52'611.7
2017-Nov-14 20:00N 45°56' W 122°48'611.3
2017-Nov-14 19:30N 45°50' W 122°48'613.0
2017-Nov-14 19:01N 45°44' W 122°46'510.7
2017-Nov-14 18:30N 45°38' W 122°47'0 0.2
2017-Nov-14 17:54N 45°38' W 122°47'0 0.0
2017-Nov-14 17:24N 45°38' W 122°47'0 0.0
2017-Nov-14 17:00N 45°38' W 122°47'0 0.0
2017-Nov-14 16:30N 45°38' W 122°47'0 0.0
2017-Nov-14 15:57N 45°38' W 122°47'0 0.0
2017-Nov-14 15:27N 45°38' W 122°47'0 0.0
2017-Nov-14 15:00N 45°38' W 122°47'0 0.0
2017-Nov-14 14:30N 45°38' W 122°47'0 0.0
2017-Nov-14 13:36N 45°38' W 122°47'0 0.0
2017-Nov-14 13:30N 45°38' W 122°47'0 0.0
2017-Nov-14 13:00N 45°38' W 122°47'0 0.0
2017-Nov-14 12:24N 45°38' W 122°47'0 0.0
2017-Nov-14 11:57N 45°38' W 122°47'0 0.0
2017-Nov-14 11:27N 45°38' W 122°47'0 0.0
2017-Nov-14 10:57N 45°38' W 122°47'0 0.0
2017-Nov-14 10:27N 45°38' W 122°47'0 0.0
2017-Nov-14 09:51N 45°38' W 122°47'0 0.0
2017-Nov-14 08:18N 45°38' W 122°47'0 0.0
2017-Nov-14 08:00N 45°38' W 122°47'0 0.0
2017-Nov-14 07:21N 45°38' W 122°47'0 0.0
2017-Nov-14 07:00N 45°38' W 122°47'0 0.0
2017-Nov-14 06:24N 45°38' W 122°47'0 0.0
2017-Nov-14 06:00N 45°38' W 122°47'0 0.0
2017-Nov-14 05:30N 45°38' W 122°47'0 0.0
2017-Nov-14 05:00N 45°38' W 122°47'0 0.0
2017-Nov-14 04:24N 45°38' W 122°47'0 0.0
2017-Nov-14 04:00N 45°38' W 122°47'0 0.0
2017-Nov-14 03:30N 45°38' W 122°47'0 0.0
2017-Nov-14 02:57N 45°38' W 122°47'0 0.0
2017-Nov-14 02:30N 45°38' W 122°47'0 0.0
2017-Nov-14 01:51N 45°38' W 122°47'0 0.0
2017-Nov-14 01:27N 45°38' W 122°47'0 0.0
2017-Nov-14 00:54N 45°38' W 122°47'0 0.0
2017-Nov-14 00:27N 45°38' W 122°47'0 0.0
2017-Nov-14 00:00N 45°38' W 122°47'0 0.0
2017-Nov-13 23:27N 45°38' W 122°47'0 0.0
2017-Nov-13 23:00N 45°38' W 122°47'0 0.0
2017-Nov-13 22:30N 45°38' W 122°47'0 0.0
2017-Nov-13 21:54N 45°38' W 122°47'0 0.0
2017-Nov-13 02:00N 45°38' W 122°47'0 0.0
2017-Nov-13 01:30N 45°38' W 122°47'0 0.0
2017-Nov-13 01:00N 45°38' W 122°47'0 0.0
2017-Nov-13 00:30N 45°38' W 122°47'0 0.0
2017-Nov-13 00:00N 45°38' W 122°47'1 1.1
2017-Nov-12 23:31N 45°39' W 122°46'2 3.2
2017-Nov-12 23:00N 45°40' W 122°46'1 1.4
2017-Nov-12 22:30N 45°41' W 122°46'0 0.1
2017-Nov-12 21:56N 45°41' W 122°46'0 0.0
2017-Nov-12 21:29N 45°41' W 122°46'0 0.0
2017-Nov-12 20:47N 45°41' W 122°46'0 0.0
2017-Nov-12 20:23N 45°41' W 122°46'0 0.1
2017-Nov-12 19:59N 45°41' W 122°46'0 0.0
2017-Nov-12 19:29N 45°41' W 122°46'0 0.1
2017-Nov-12 18:59N 45°41' W 122°46'0 0.0
2017-Nov-12 18:29N 45°41' W 122°46'0 0.0
2017-Nov-12 17:59N 45°41' W 122°46'0 0.0
2017-Nov-12 17:29N 45°41' W 122°46'0 0.0
2017-Nov-12 16:59N 45°41' W 122°46'0 0.1
2017-Nov-12 16:29N 45°41' W 122°46'0 0.0
2017-Nov-12 15:59N 45°41' W 122°46'0 0.0
2017-Nov-12 15:29N 45°41' W 122°46'0 0.0
2017-Nov-12 14:59N 45°41' W 122°46'0 0.1
2017-Nov-12 14:29N 45°41' W 122°46'0 0.0
2017-Nov-12 13:59N 45°41' W 122°46'0 0.1
2017-Nov-12 13:29N 45°41' W 122°46'0 0.1
2017-Nov-12 12:59N 45°41' W 122°46'0 0.0
2017-Nov-12 12:29N 45°41' W 122°46'0 0.0
2017-Nov-12 11:50N 45°41' W 122°46'0 0.0
2017-Nov-12 11:29N 45°41' W 122°46'0 0.0
2017-Nov-12 10:59N 45°41' W 122°46'0 0.0
2017-Nov-12 10:29N 45°41' W 122°46'0 0.0
2017-Nov-12 09:59N 45°41' W 122°46'0 0.0
2017-Nov-12 09:26N 45°41' W 122°46'0 0.0
2017-Nov-12 08:59N 45°41' W 122°46'0 0.0
2017-Nov-12 08:23N 45°41' W 122°46'0 0.0
2017-Nov-12 07:59N 45°41' W 122°46'0 0.0
2017-Nov-12 07:29N 45°41' W 122°46'0 0.0
2017-Nov-12 06:59N 45°41' W 122°46'0 0.0
2017-Nov-12 06:29N 45°41' W 122°46'0 0.0
2017-Nov-12 05:59N 45°41' W 122°46'0 0.0
2017-Nov-12 05:29N 45°41' W 122°46'0 0.0
2017-Nov-12 04:59N 45°41' W 122°46'0 0.0
2017-Nov-12 04:26N 45°41' W 122°46'0 0.0
2017-Nov-12 03:59N 45°41' W 122°46'0 0.0
2017-Nov-12 03:29N 45°41' W 122°46'0 0.0
2017-Nov-12 02:56N 45°41' W 122°46'0 0.0
2017-Nov-12 02:29N 45°41' W 122°46'0 0.0
2017-Nov-12 01:56N 45°41' W 122°46'0 0.0
2017-Nov-12 01:29N 45°41' W 122°46'0 0.0
2017-Nov-12 00:56N 45°41' W 122°46'0 0.0
2017-Nov-12 00:29N 45°41' W 122°46'0 0.0
2017-Nov-11 23:59N 45°41' W 122°46'0 0.0
2017-Nov-11 23:23N 45°41' W 122°46'0 0.0
2017-Nov-11 22:56N 45°41' W 122°46'0 0.0
2017-Nov-11 22:29N 45°41' W 122°46'0 0.0
2017-Nov-11 21:59N 45°41' W 122°46'0 0.0
2017-Nov-11 21:29N 45°41' W 122°46'0 0.0
2017-Nov-11 20:59N 45°41' W 122°46'0 0.0
2017-Nov-11 20:29N 45°41' W 122°46'0 0.0
2017-Nov-11 19:59N 45°41' W 122°46'0 0.1
2017-Nov-11 19:26N 45°41' W 122°46'0 0.1
2017-Nov-11 18:56N 45°41' W 122°46'0 0.1
2017-Nov-11 18:29N 45°41' W 122°46'0 0.0
2017-Nov-11 17:59N 45°41' W 122°46'0 0.1
2017-Nov-11 17:29N 45°41' W 122°46'0 0.0
2017-Nov-11 16:59N 45°41' W 122°46'0 0.0
2017-Nov-11 16:29N 45°41' W 122°46'0 0.0
2017-Nov-11 15:56N 45°41' W 122°46'0 0.0
2017-Nov-11 15:29N 45°41' W 122°46'0 0.1
2017-Nov-11 14:47N 45°41' W 122°46'0 0.0
2017-Nov-11 14:29N 45°41' W 122°46'0 0.0
2017-Nov-11 13:53N 45°41' W 122°46'0 0.0
2017-Nov-11 13:29N 45°41' W 122°46'0 0.0
2017-Nov-11 12:56N 45°41' W 122°46'0 0.0
2017-Nov-11 12:23N 45°41' W 122°46'0 0.0
2017-Nov-11 11:59N 45°41' W 122°46'0 0.0
2017-Nov-11 11:29N 45°41' W 122°46'0 0.0
2017-Nov-11 10:53N 45°41' W 122°46'0 0.0
2017-Nov-11 10:29N 45°41' W 122°46'0 0.1
2017-Nov-11 09:56N 45°41' W 122°46'0 0.0
2017-Nov-11 09:29N 45°41' W 122°46'0 0.0
2017-Nov-11 08:29N 45°41' W 122°46'0 0.1
2017-Nov-11 07:59N 45°41' W 122°46'0 0.1
2017-Nov-11 07:29N 45°41' W 122°46'0 0.0
2017-Nov-11 06:53N 45°41' W 122°46'0 0.0
2017-Nov-11 06:26N 45°41' W 122°46'0 0.0
2017-Nov-11 05:59N 45°41' W 122°46'0 0.0
2017-Nov-11 05:29N 45°41' W 122°46'0 0.0
2017-Nov-11 04:59N 45°41' W 122°46'0 0.0
2017-Nov-11 04:29N 45°41' W 122°46'0 0.0
2017-Nov-11 03:59N 45°41' W 122°46'0 0.0
2017-Nov-11 03:29N 45°41' W 122°46'0 0.0
2017-Nov-11 02:53N 45°41' W 122°46'0 0.1
2017-Nov-11 02:23N 45°41' W 122°46'0 0.0
2017-Nov-11 01:59N 45°41' W 122°46'0 0.0
2017-Nov-11 01:29N 45°41' W 122°46'0 0.0
2017-Nov-11 00:59N 45°41' W 122°46'0 0.0
2017-Nov-11 00:29N 45°41' W 122°46'0 0.0
2017-Nov-10 23:59N 45°41' W 122°46'0 0.0
2017-Nov-10 23:29N 45°41' W 122°46'0 0.0
2017-Nov-10 22:59N 45°41' W 122°46'0 0.0
2017-Nov-10 22:29N 45°41' W 122°46'0 0.0
2017-Nov-10 21:59N 45°41' W 122°46'0 0.0
2017-Nov-10 21:29N 45°41' W 122°46'0 0.0
2017-Nov-10 20:59N 45°41' W 122°46'0 0.0
2017-Nov-10 20:29N 45°41' W 122°46'0 0.0
2017-Nov-10 19:47N 45°41' W 122°46'0 0.0
2017-Nov-10 19:29N 45°41' W 122°46'0 0.0
2017-Nov-10 18:59N 45°41' W 122°46'0 0.0
2017-Nov-10 18:29N 45°41' W 122°46'0 0.0
2017-Nov-10 17:59N 45°41' W 122°46'0 0.0
2017-Nov-10 17:29N 45°41' W 122°46'0 0.0
2017-Nov-10 16:59N 45°41' W 122°46'0 0.0
2017-Nov-10 16:26N 45°41' W 122°46'0 0.0
2017-Nov-10 15:59N 45°41' W 122°46'0 0.0
2017-Nov-10 15:29N 45°41' W 122°46'0 0.0
2017-Nov-10 14:59N 45°41' W 122°46'0 0.0
2017-Nov-10 14:17N 45°41' W 122°46'0 0.0
2017-Nov-10 13:59N 45°41' W 122°46'0 0.0
2017-Nov-10 13:29N 45°41' W 122°46'0 0.0
2017-Nov-10 12:53N 45°41' W 122°46'0 0.0
2017-Nov-10 12:26N 45°41' W 122°46'0 0.0
2017-Nov-10 11:59N 45°41' W 122°46'0 0.0
2017-Nov-10 11:29N 45°41' W 122°46'0 0.0
2017-Nov-10 10:56N 45°41' W 122°46'0 0.0
2017-Nov-10 10:29N 45°41' W 122°46'0 0.0
2017-Nov-10 09:41N 45°41' W 122°46'0 0.0
2017-Nov-10 09:29N 45°41' W 122°46'0 0.1
2017-Nov-10 08:53N 45°41' W 122°46'0 0.0
2017-Nov-10 08:29N 45°41' W 122°46'0 0.0
2017-Nov-10 07:59N 45°41' W 122°46'0 0.0
2017-Nov-10 07:26N 45°41' W 122°46'0 0.0
2017-Nov-10 06:56N 45°41' W 122°46'0 0.1
2017-Nov-10 06:23N 45°41' W 122°46'0 0.1
2017-Nov-10 05:59N 45°41' W 122°46'0 0.0
2017-Nov-10 05:23N 45°41' W 122°46'0 0.0
2017-Nov-10 04:59N 45°41' W 122°46'0 0.0
2017-Nov-10 04:26N 45°41' W 122°46'0 0.0
2017-Nov-10 03:56N 45°41' W 122°46'0 0.0
2017-Nov-10 03:23N 45°41' W 122°46'0 0.0
2017-Nov-10 02:53N 45°41' W 122°46'0 0.0
2017-Nov-10 02:29N 45°41' W 122°46'0 0.0
2017-Nov-10 01:59N 45°41' W 122°46'0 0.0
2017-Nov-10 01:29N 45°41' W 122°46'0 0.0
2017-Nov-10 00:56N 45°41' W 122°46'0 0.0
2017-Nov-10 00:29N 45°41' W 122°46'0 0.0
2017-Nov-09 23:59N 45°41' W 122°46'0 0.0
2017-Nov-09 23:29N 45°41' W 122°46'0 0.1
2017-Nov-09 22:59N 45°41' W 122°46'0 0.1
2017-Nov-09 22:29N 45°41' W 122°46'0 0.0
2017-Nov-09 21:59N 45°41' W 122°46'0 0.0
2017-Nov-09 21:29N 45°41' W 122°46'0 0.0
2017-Nov-09 20:59N 45°41' W 122°46'0 0.0
2017-Nov-09 20:29N 45°41' W 122°46'0 0.0
2017-Nov-09 19:56N 45°41' W 122°46'0 0.0
2017-Nov-09 19:29N 45°41' W 122°46'0 0.0
2017-Nov-09 18:59N 45°41' W 122°46'0 0.1
2017-Nov-09 18:29N 45°41' W 122°46'0 0.0
2017-Nov-09 17:59N 45°41' W 122°46'0 0.0
2017-Nov-09 17:29N 45°41' W 122°46'0 0.0
2017-Nov-09 16:59N 45°41' W 122°46'0 0.0
2017-Nov-09 16:29N 45°41' W 122°46'0 0.0
2017-Nov-09 15:59N 45°41' W 122°46'0 0.0
2017-Nov-09 15:29N 45°41' W 122°46'0 0.0
2017-Nov-09 14:56N 45°41' W 122°46'0 0.1
2017-Nov-09 14:29N 45°41' W 122°46'0 0.0
2017-Nov-09 13:59N 45°41' W 122°46'0 0.0
2017-Nov-09 13:29N 45°41' W 122°46'0 0.1
2017-Nov-09 12:59N 45°41' W 122°46'0 0.0
2017-Nov-09 12:26N 45°41' W 122°46'0 0.0
2017-Nov-09 11:59N 45°41' W 122°46'0 0.0
2017-Nov-09 11:20N 45°41' W 122°46'0 0.1
2017-Nov-09 10:59N 45°41' W 122°46'0 0.1
2017-Nov-09 10:29N 45°41' W 122°46'0 0.0
2017-Nov-09 09:59N 45°41' W 122°46'0 0.0
2017-Nov-09 09:20N 45°41' W 122°46'0 0.1
2017-Nov-09 08:56N 45°41' W 122°46'0 0.0
2017-Nov-09 08:29N 45°41' W 122°46'0 0.0
2017-Nov-09 07:59N 45°41' W 122°46'0 0.0
2017-Nov-09 07:29N 45°41' W 122°46'0 0.0
2017-Nov-09 06:59N 45°41' W 122°46'0 0.0
2017-Nov-09 06:29N 45°41' W 122°46'0 0.0
2017-Nov-09 05:59N 45°41' W 122°46'0 0.0
2017-Nov-09 05:26N 45°41' W 122°46'0 0.1
2017-Nov-09 04:56N 45°41' W 122°46'0 0.0
2017-Nov-09 04:29N 45°41' W 122°46'0 0.2
2017-Nov-09 03:59N 45°41' W 122°46'0 0.2
2017-Nov-09 03:29N 45°41' W 122°46'0 0.2
2017-Nov-09 02:59N 45°41' W 122°46'0 0.1
2017-Nov-09 02:29N 45°41' W 122°46'0 0.1
2017-Nov-09 01:59N 45°41' W 122°46'0 0.1
2017-Nov-09 01:26N 45°41' W 122°46'0 0.0
2017-Nov-09 00:59N 45°41' W 122°46'0 0.0
2017-Nov-09 00:23N 45°41' W 122°46'0 0.0
2017-Nov-08 23:59N 45°41' W 122°46'0 0.1
2017-Nov-08 23:23N 45°41' W 122°46'0 0.1
2017-Nov-08 22:59N 45°41' W 122°46'0 0.0
2017-Nov-08 22:23N 45°41' W 122°46'0 0.0
2017-Nov-08 21:56N 45°41' W 122°46'0 0.0
2017-Nov-08 21:29N 45°41' W 122°46'0 0.0
2017-Nov-08 20:59N 45°41' W 122°46'0 0.0
2017-Nov-08 20:29N 45°41' W 122°46'0 0.0
2017-Nov-08 19:59N 45°41' W 122°46'0 0.0
2017-Nov-08 19:29N 45°41' W 122°46'0 0.0
2017-Nov-08 18:59N 45°41' W 122°46'0 0.0
2017-Nov-08 18:26N 45°41' W 122°46'0 0.1
2017-Nov-08 17:59N 45°41' W 122°46'0 0.1
2017-Nov-08 17:29N 45°41' W 122°46'0 0.0
2017-Nov-08 16:59N 45°41' W 122°46'0 0.0
2017-Nov-08 16:26N 45°41' W 122°46'0 0.1
2017-Nov-08 15:56N 45°41' W 122°46'0 0.1
2017-Nov-08 15:29N 45°41' W 122°46'0 0.0
2017-Nov-08 14:59N 45°41' W 122°46'0 0.1
2017-Nov-08 14:08N 45°41' W 122°46'0 0.3
2017-Nov-08 13:59N 45°41' W 122°46'0 0.0
2017-Nov-08 13:17N 45°41' W 122°46'0 0.0
2017-Nov-08 12:59N 45°41' W 122°46'0 0.0
2017-Nov-08 12:29N 45°41' W 122°46'0 0.0
2017-Nov-08 11:56N 45°41' W 122°46'0 0.0
2017-Nov-08 11:29N 45°41' W 122°46'0 0.0
2017-Nov-08 10:59N 45°41' W 122°46'0 0.0
2017-Nov-08 10:29N 45°41' W 122°46'0 0.0
2017-Nov-08 09:50N 45°41' W 122°46'0 0.0
2017-Nov-08 09:29N 45°41' W 122°46'0 0.0
2017-Nov-08 08:59N 45°41' W 122°46'0 0.0
2017-Nov-08 08:26N 45°41' W 122°46'0 0.0
2017-Nov-08 07:59N 45°41' W 122°46'0 0.0
2017-Nov-08 07:29N 45°41' W 122°46'0 0.0
2017-Nov-08 06:59N 45°41' W 122°46'0 0.0
2017-Nov-08 06:29N 45°41' W 122°46'0 0.0
2017-Nov-08 05:59N 45°41' W 122°46'0 0.0
2017-Nov-08 05:26N 45°41' W 122°46'0 0.0
2017-Nov-08 04:59N 45°41' W 122°46'0 0.0
2017-Nov-08 04:14N 45°41' W 122°46'0 0.0
2017-Nov-08 03:59N 45°41' W 122°46'0 0.1
2017-Nov-08 03:29N 45°41' W 122°46'0 0.1
2017-Nov-08 02:56N 45°41' W 122°46'0 0.0
2017-Nov-08 02:29N 45°41' W 122°46'0 0.0
2017-Nov-08 01:59N 45°41' W 122°46'0 0.0
2017-Nov-08 01:29N 45°41' W 122°46'0 0.1
2017-Nov-08 00:59N 45°41' W 122°46'0 0.0
2017-Nov-08 00:17N 45°41' W 122°46'0 0.0
2017-Nov-07 23:59N 45°41' W 122°46'0 0.0
2017-Nov-07 23:29N 45°41' W 122°46'0 0.0
2017-Nov-07 22:53N 45°41' W 122°46'0 0.0
2017-Nov-07 22:17N 45°41' W 122°46'0 0.0
2017-Nov-07 21:56N 45°41' W 122°46'0 0.0
2017-Nov-07 21:29N 45°41' W 122°46'0 0.0
2017-Nov-07 20:59N 45°41' W 122°46'0 0.0
2017-Nov-07 20:29N 45°41' W 122°46'0 0.0
2017-Nov-07 19:56N 45°41' W 122°46'0 0.0
2017-Nov-07 19:23N 45°41' W 122°46'0 0.0
2017-Nov-07 18:59N 45°41' W 122°46'0 0.1
2017-Nov-07 18:29N 45°41' W 122°46'0 0.0
2017-Nov-07 17:59N 45°41' W 122°46'0 0.0
2017-Nov-07 17:29N 45°41' W 122°46'0 0.0
2017-Nov-07 16:59N 45°41' W 122°46'0 0.0
2017-Nov-07 16:29N 45°41' W 122°46'0 0.2
2017-Nov-07 15:59N 45°41' W 122°46'0 0.2
2017-Nov-07 15:29N 45°41' W 122°46'0 0.1
2017-Nov-07 14:59N 45°41' W 122°46'0 0.2
2017-Nov-07 14:29N 45°41' W 122°46'0 0.1
2017-Nov-07 13:56N 45°41' W 122°46'0 0.0
2017-Nov-07 13:26N 45°41' W 122°46'0 0.0
2017-Nov-07 12:56N 45°41' W 122°46'0 0.0
2017-Nov-07 12:29N 45°41' W 122°46'0 0.0
2017-Nov-07 11:56N 45°41' W 122°46'0 0.0
2017-Nov-07 11:11N 45°41' W 122°46'0 0.0
2017-Nov-07 10:50N 45°41' W 122°46'0 0.0
2017-Nov-07 10:29N 45°41' W 122°46'0 0.0
2017-Nov-07 09:50N 45°41' W 122°46'0 0.0
2017-Nov-07 09:26N 45°41' W 122°46'0 0.0
2017-Nov-07 08:53N 45°41' W 122°46'0 0.0
2017-Nov-07 08:29N 45°41' W 122°46'0 0.0
2017-Nov-07 07:53N 45°41' W 122°46'0 0.0
2017-Nov-07 07:29N 45°41' W 122°46'0 0.0
2017-Nov-07 06:59N 45°41' W 122°46'0 0.0
2017-Nov-07 06:26N 45°41' W 122°46'0 0.0
2017-Nov-07 05:59N 45°41' W 122°46'0 0.0
2017-Nov-07 05:29N 45°41' W 122°46'0 0.0
2017-Nov-07 04:56N 45°41' W 122°46'0 0.0
2017-Nov-07 04:29N 45°41' W 122°46'0 0.0
2017-Nov-07 03:59N 45°41' W 122°46'0 0.0
2017-Nov-07 00:26N 45°41' W 122°46'0 0.1
2017-Nov-06 23:59N 45°41' W 122°46'0 0.1
2017-Nov-06 23:26N 45°41' W 122°46'0 0.0
2017-Nov-06 22:59N 45°41' W 122°46'0 0.0
2017-Nov-06 22:29N 45°41' W 122°46'0 0.0
2017-Nov-06 21:59N 45°41' W 122°46'0 0.0
2017-Nov-06 21:26N 45°41' W 122°46'0 0.0
2017-Nov-06 20:59N 45°41' W 122°46'0 0.0
2017-Nov-06 20:14N 45°41' W 122°46'  
Track history (hours):
 
Tides and Currents Weather Stations Pressure Air Temp Water Temp Dewpoint Dewpoint Depression Visibility Wind Speed Wind Dir Waves Ship Positions

African Teist

Last reported at 2017-Nov-16 04:57 UTC. Time now 2017-Nov-23 03:55 UTC.
Position N 46°18' W 125°38'.

Length 179 m; draft 10 m.

Type: Cargo ship. MMSI: 354527000.

Date/timePositionNaut miles runAvg speedWind from/ knotsBaromVisibWave heightAir tempDewpointWater temp
2017-Nov-16 04:57N 46°18' W 125°38'4 9.0
2017-Nov-16 04:30N 46°18' W 125°32'5 9.0
2017-Nov-16 04:00N 46°18' W 125°26'4 8.8
2017-Nov-16 03:30N 46°17' W 125°19'4 8.4
2017-Nov-16 03:00N 46°17' W 125°13'4 8.4
2017-Nov-16 02:30N 46°16' W 125°07'4 8.2
2017-Nov-16 02:00N 46°16' W 125°01'4 7.9
2017-Nov-16 01:30N 46°16' W 124°56'4 7.9
2017-Nov-16 01:01N 46°16' W 124°50'4 7.4
2017-Nov-16 00:30N 46°15' W 124°45'4 7.5
2017-Nov-16 00:00N 46°15' W 124°39'4 7.4
2017-Nov-15 23:30N 46°15' W 124°34'4 7.3
2017-Nov-15 23:00N 46°15' W 124°29'4 7.1
2017-Nov-15 22:30N 46°14' W 124°24'4 7.7
2017-Nov-15 22:01N 46°13' W 124°18'5 7.7
2017-Nov-15 21:19N 46°13' W 124°11'2 7.0
2017-Nov-15 21:01N 46°14' W 124°08'4 8.9
2017-Nov-15 20:30N 46°16' W 124°02'510.9
2017-Nov-15 20:00N 46°12' W 123°56'5 7.8
2017-Nov-15 19:20N 46°12' W 123°48'4 9.1
2017-Nov-15 18:53N 46°14' W 123°43'4 9.3
2017-Nov-15 18:30N 46°16' W 123°38'5 9.6
2017-Nov-15 18:00N 46°16' W 123°31'5 8.1
2017-Nov-15 17:25N 46°14' W 123°25'4 9.6
2017-Nov-15 17:00N 46°10' W 123°24'1016.4
2017-Nov-15 16:25N 46°11' W 123°11'0 1.0
2017-Nov-15 16:01N 46°11' W 123°10'611.2
2017-Nov-15 15:30N 46°09' W 123°03'511.0
2017-Nov-15 15:00N 46°06' W 122°56'1 1.1
2017-Nov-15 14:28N 46°05' W 122°56'0 0.2
2017-Nov-15 13:58N 46°05' W 122°56'0 0.0
2017-Nov-15 13:28N 46°05' W 122°56'0 0.0
2017-Nov-15 12:16N 46°05' W 122°56'0 0.0
2017-Nov-15 11:52N 46°05' W 122°56'0 0.0
2017-Nov-15 11:28N 46°05' W 122°56'0 0.0
2017-Nov-15 10:58N 46°05' W 122°56'0 0.0
2017-Nov-15 10:10N 46°05' W 122°56'0 0.2
2017-Nov-15 09:58N 46°05' W 122°56'0 0.0
2017-Nov-15 09:25N 46°05' W 122°56'0 0.0
2017-Nov-15 08:58N 46°05' W 122°56'0 0.1
2017-Nov-15 08:22N 46°05' W 122°56'0 0.1
2017-Nov-15 07:58N 46°05' W 122°56'0 0.1
2017-Nov-15 07:25N 46°05' W 122°56'0 0.0
2017-Nov-15 06:52N 46°05' W 122°56'0 0.0
2017-Nov-15 06:28N 46°05' W 122°56'0 0.0
2017-Nov-15 05:58N 46°05' W 122°56'0 0.0
2017-Nov-15 05:25N 46°05' W 122°56'0 0.0
2017-Nov-15 04:55N 46°05' W 122°56'0 0.0
2017-Nov-15 04:28N 46°05' W 122°56'0 0.0
2017-Nov-15 03:52N 46°05' W 122°56'0 0.0
2017-Nov-15 03:19N 46°05' W 122°56'0 0.0
2017-Nov-15 02:52N 46°05' W 122°56'0 0.0
2017-Nov-15 02:01N 46°05' W 122°56'0 0.1
2017-Nov-15 01:58N 46°05' W 122°56'0 0.1
2017-Nov-15 01:22N 46°05' W 122°56'0 0.1
2017-Nov-15 00:58N 46°05' W 122°56'0 0.1
2017-Nov-15 00:28N 46°05' W 122°56'0 0.0
2017-Nov-14 23:37N 46°05' W 122°56'0 0.0
2017-Nov-14 23:25N 46°05' W 122°56'0 0.0
2017-Nov-14 22:58N 46°05' W 122°56'0 0.1
2017-Nov-14 22:28N 46°05' W 122°56'0 0.1
2017-Nov-14 22:00N 46°05' W 122°56'0 0.4
2017-Nov-14 21:30N 46°05' W 122°55'1 2.5
2017-Nov-14 21:00N 46°05' W 122°54'4 8.0
2017-Nov-14 20:30N 46°01' W 122°52'611.7
2017-Nov-14 20:00N 45°56' W 122°48'611.3
2017-Nov-14 19:30N 45°50' W 122°48'613.0
2017-Nov-14 19:01N 45°44' W 122°46'510.7
2017-Nov-14 18:30N 45°38' W 122°47'0 0.2
2017-Nov-14 17:54N 45°38' W 122°47'0 0.0
2017-Nov-14 17:24N 45°38' W 122°47'0 0.0
2017-Nov-14 17:00N 45°38' W 122°47'0 0.0
2017-Nov-14 16:30N 45°38' W 122°47'0 0.0
2017-Nov-14 15:57N 45°38' W 122°47'0 0.0
2017-Nov-14 15:27N 45°38' W 122°47'0 0.0
2017-Nov-14 15:00N 45°38' W 122°47'0 0.0
2017-Nov-14 14:30N 45°38' W 122°47'0 0.0
2017-Nov-14 13:36N 45°38' W 122°47'0 0.0
2017-Nov-14 13:30N 45°38' W 122°47'0 0.0
2017-Nov-14 13:00N 45°38' W 122°47'0 0.0
2017-Nov-14 12:24N 45°38' W 122°47'0 0.0
2017-Nov-14 11:57N 45°38' W 122°47'0 0.0
2017-Nov-14 11:27N 45°38' W 122°47'0 0.0
2017-Nov-14 10:57N 45°38' W 122°47'0 0.0
2017-Nov-14 10:27N 45°38' W 122°47'0 0.0
2017-Nov-14 09:51N 45°38' W 122°47'0 0.0
2017-Nov-14 08:18N 45°38' W 122°47'0 0.0
2017-Nov-14 08:00N 45°38' W 122°47'0 0.0
2017-Nov-14 07:21N 45°38' W 122°47'0 0.0
2017-Nov-14 07:00N 45°38' W 122°47'0 0.0
2017-Nov-14 06:24N 45°38' W 122°47'0 0.0
2017-Nov-14 06:00N 45°38' W 122°47'0 0.0
2017-Nov-14 05:30N 45°38' W 122°47'0 0.0
2017-Nov-14 05:00N 45°38' W 122°47'0 0.0
2017-Nov-14 04:24N 45°38' W 122°47'0 0.0
2017-Nov-14 04:00N 45°38' W 122°47'0 0.0
2017-Nov-14 03:30N 45°38' W 122°47'0 0.0
2017-Nov-14 02:57N 45°38' W 122°47'0 0.0
2017-Nov-14 02:30N 45°38' W 122°47'0 0.0
2017-Nov-14 01:51N 45°38' W 122°47'0 0.0
2017-Nov-14 01:27N 45°38' W 122°47'0 0.0
2017-Nov-14 00:54N 45°38' W 122°47'0 0.0
2017-Nov-14 00:27N 45°38' W 122°47'0 0.0
2017-Nov-14 00:00N 45°38' W 122°47'0 0.0
2017-Nov-13 23:27N 45°38' W 122°47'0 0.0
2017-Nov-13 23:00N 45°38' W 122°47'0 0.0
2017-Nov-13 22:30N 45°38' W 122°47'0 0.0
2017-Nov-13 21:54N 45°38' W 122°47'0 0.0
2017-Nov-13 02:00N 45°38' W 122°47'0 0.0
2017-Nov-13 01:30N 45°38' W 122°47'0 0.0
2017-Nov-13 01:00N 45°38' W 122°47'0 0.0
2017-Nov-13 00:30N 45°38' W 122°47'0 0.0
2017-Nov-13 00:00N 45°38' W 122°47'1 1.1
2017-Nov-12 23:31N 45°39' W 122°46'2 3.2
2017-Nov-12 23:00N 45°40' W 122°46'1 1.4
2017-Nov-12 22:30N 45°41' W 122°46'0 0.1
2017-Nov-12 21:56N 45°41' W 122°46'0 0.0
2017-Nov-12 21:29N 45°41' W 122°46'0 0.0
2017-Nov-12 20:47N 45°41' W 122°46'0 0.0
2017-Nov-12 20:23N 45°41' W 122°46'0 0.1
2017-Nov-12 19:59N 45°41' W 122°46'0 0.0
2017-Nov-12 19:29N 45°41' W 122°46'0 0.1
2017-Nov-12 18:59N 45°41' W 122°46'0 0.0
2017-Nov-12 18:29N 45°41' W 122°46'0 0.0
2017-Nov-12 17:59N 45°41' W 122°46'0 0.0
2017-Nov-12 17:29N 45°41' W 122°46'0 0.0
2017-Nov-12 16:59N 45°41' W 122°46'0 0.1
2017-Nov-12 16:29N 45°41' W 122°46'0 0.0
2017-Nov-12 15:59N 45°41' W 122°46'0 0.0
2017-Nov-12 15:29N 45°41' W 122°46'0 0.0
2017-Nov-12 14:59N 45°41' W 122°46'0 0.1
2017-Nov-12 14:29N 45°41' W 122°46'0 0.0
2017-Nov-12 13:59N 45°41' W 122°46'0 0.1
2017-Nov-12 13:29N 45°41' W 122°46'0 0.1
2017-Nov-12 12:59N 45°41' W 122°46'0 0.0
2017-Nov-12 12:29N 45°41' W 122°46'0 0.0
2017-Nov-12 11:50N 45°41' W 122°46'0 0.0
2017-Nov-12 11:29N 45°41' W 122°46'0 0.0
2017-Nov-12 10:59N 45°41' W 122°46'0 0.0
2017-Nov-12 10:29N 45°41' W 122°46'0 0.0
2017-Nov-12 09:59N 45°41' W 122°46'0 0.0
2017-Nov-12 09:26N 45°41' W 122°46'0 0.0
2017-Nov-12 08:59N 45°41' W 122°46'0 0.0
2017-Nov-12 08:23N 45°41' W 122°46'0 0.0
2017-Nov-12 07:59N 45°41' W 122°46'0 0.0
2017-Nov-12 07:29N 45°41' W 122°46'0 0.0
2017-Nov-12 06:59N 45°41' W 122°46'0 0.0
2017-Nov-12 06:29N 45°41' W 122°46'0 0.0
2017-Nov-12 05:59N 45°41' W 122°46'0 0.0
2017-Nov-12 05:29N 45°41' W 122°46'0 0.0
2017-Nov-12 04:59N 45°41' W 122°46'0 0.0
2017-Nov-12 04:26N 45°41' W 122°46'0 0.0
2017-Nov-12 03:59N 45°41' W 122°46'0 0.0
2017-Nov-12 03:29N 45°41' W 122°46'0 0.0
2017-Nov-12 02:56N 45°41' W 122°46'0 0.0
2017-Nov-12 02:29N 45°41' W 122°46'0 0.0
2017-Nov-12 01:56N 45°41' W 122°46'0 0.0
2017-Nov-12 01:29N 45°41' W 122°46'0 0.0
2017-Nov-12 00:56N 45°41' W 122°46'0 0.0
2017-Nov-12 00:29N 45°41' W 122°46'0 0.0
2017-Nov-11 23:59N 45°41' W 122°46'0 0.0
2017-Nov-11 23:23N 45°41' W 122°46'0 0.0
2017-Nov-11 22:56N 45°41' W 122°46'0 0.0
2017-Nov-11 22:29N 45°41' W 122°46'0 0.0
2017-Nov-11 21:59N 45°41' W 122°46'0 0.0
2017-Nov-11 21:29N 45°41' W 122°46'0 0.0
2017-Nov-11 20:59N 45°41' W 122°46'0 0.0
2017-Nov-11 20:29N 45°41' W 122°46'0 0.0
2017-Nov-11 19:59N 45°41' W 122°46'0 0.1
2017-Nov-11 19:26N 45°41' W 122°46'0 0.1
2017-Nov-11 18:56N 45°41' W 122°46'0 0.1
2017-Nov-11 18:29N 45°41' W 122°46'0 0.0
2017-Nov-11 17:59N 45°41' W 122°46'0 0.1
2017-Nov-11 17:29N 45°41' W 122°46'0 0.0
2017-Nov-11 16:59N 45°41' W 122°46'0 0.0
2017-Nov-11 16:29N 45°41' W 122°46'0 0.0
2017-Nov-11 15:56N 45°41' W 122°46'0 0.0
2017-Nov-11 15:29N 45°41' W 122°46'0 0.1
2017-Nov-11 14:47N 45°41' W 122°46'0 0.0
2017-Nov-11 14:29N 45°41' W 122°46'0 0.0
2017-Nov-11 13:53N 45°41' W 122°46'0 0.0
2017-Nov-11 13:29N 45°41' W 122°46'0 0.0
2017-Nov-11 12:56N 45°41' W 122°46'0 0.0
2017-Nov-11 12:23N 45°41' W 122°46'0 0.0
2017-Nov-11 11:59N 45°41' W 122°46'0 0.0
2017-Nov-11 11:29N 45°41' W 122°46'0 0.0
2017-Nov-11 10:53N 45°41' W 122°46'0 0.0
2017-Nov-11 10:29N 45°41' W 122°46'0 0.1
2017-Nov-11 09:56N 45°41' W 122°46'0 0.0
2017-Nov-11 09:29N 45°41' W 122°46'0 0.0
2017-Nov-11 08:29N 45°41' W 122°46'0 0.1
2017-Nov-11 07:59N 45°41' W 122°46'0 0.1
2017-Nov-11 07:29N 45°41' W 122°46'0 0.0
2017-Nov-11 06:53N 45°41' W 122°46'0 0.0
2017-Nov-11 06:26N 45°41' W 122°46'0 0.0
2017-Nov-11 05:59N 45°41' W 122°46'0 0.0
2017-Nov-11 05:29N 45°41' W 122°46'0 0.0
2017-Nov-11 04:59N 45°41' W 122°46'0 0.0
2017-Nov-11 04:29N 45°41' W 122°46'0 0.0
2017-Nov-11 03:59N 45°41' W 122°46'0 0.0
2017-Nov-11 03:29N 45°41' W 122°46'0 0.0
2017-Nov-11 02:53N 45°41' W 122°46'0 0.1
2017-Nov-11 02:23N 45°41' W 122°46'0 0.0
2017-Nov-11 01:59N 45°41' W 122°46'0 0.0
2017-Nov-11 01:29N 45°41' W 122°46'0 0.0
2017-Nov-11 00:59N 45°41' W 122°46'0 0.0
2017-Nov-11 00:29N 45°41' W 122°46'0 0.0
2017-Nov-10 23:59N 45°41' W 122°46'0 0.0
2017-Nov-10 23:29N 45°41' W 122°46'0 0.0
2017-Nov-10 22:59N 45°41' W 122°46'0 0.0
2017-Nov-10 22:29N 45°41' W 122°46'0 0.0
2017-Nov-10 21:59N 45°41' W 122°46'0 0.0
2017-Nov-10 21:29N 45°41' W 122°46'0 0.0
2017-Nov-10 20:59N 45°41' W 122°46'0 0.0
2017-Nov-10 20:29N 45°41' W 122°46'0 0.0
2017-Nov-10 19:47N 45°41' W 122°46'0 0.0
2017-Nov-10 19:29N 45°41' W 122°46'0 0.0
2017-Nov-10 18:59N 45°41' W 122°46'0 0.0
2017-Nov-10 18:29N 45°41' W 122°46'0 0.0
2017-Nov-10 17:59N 45°41' W 122°46'0 0.0
2017-Nov-10 17:29N 45°41' W 122°46'0 0.0
2017-Nov-10 16:59N 45°41' W 122°46'0 0.0
2017-Nov-10 16:26N 45°41' W 122°46'0 0.0
2017-Nov-10 15:59N 45°41' W 122°46'0 0.0
2017-Nov-10 15:29N 45°41' W 122°46'0 0.0
2017-Nov-10 14:59N 45°41' W 122°46'0 0.0
2017-Nov-10 14:17N 45°41' W 122°46'0 0.0
2017-Nov-10 13:59N 45°41' W 122°46'0 0.0
2017-Nov-10 13:29N 45°41' W 122°46'0 0.0
2017-Nov-10 12:53N 45°41' W 122°46'0 0.0
2017-Nov-10 12:26N 45°41' W 122°46'0 0.0
2017-Nov-10 11:59N 45°41' W 122°46'0 0.0
2017-Nov-10 11:29N 45°41' W 122°46'0 0.0
2017-Nov-10 10:56N 45°41' W 122°46'0 0.0
2017-Nov-10 10:29N 45°41' W 122°46'0 0.0
2017-Nov-10 09:41N 45°41' W 122°46'0 0.0
2017-Nov-10 09:29N 45°41' W 122°46'0 0.1
2017-Nov-10 08:53N 45°41' W 122°46'0 0.0
2017-Nov-10 08:29N 45°41' W 122°46'0 0.0
2017-Nov-10 07:59N 45°41' W 122°46'0 0.0
2017-Nov-10 07:26N 45°41' W 122°46'0 0.0
2017-Nov-10 06:56N 45°41' W 122°46'0 0.1
2017-Nov-10 06:23N 45°41' W 122°46'0 0.1
2017-Nov-10 05:59N 45°41' W 122°46'0 0.0
2017-Nov-10 05:23N 45°41' W 122°46'0 0.0
2017-Nov-10 04:59N 45°41' W 122°46'0 0.0
2017-Nov-10 04:26N 45°41' W 122°46'0 0.0
2017-Nov-10 03:56N 45°41' W 122°46'0 0.0
2017-Nov-10 03:23N 45°41' W 122°46'0 0.0
2017-Nov-10 02:53N 45°41' W 122°46'0 0.0
2017-Nov-10 02:29N 45°41' W 122°46'0 0.0
2017-Nov-10 01:59N 45°41' W 122°46'0 0.0
2017-Nov-10 01:29N 45°41' W 122°46'0 0.0
2017-Nov-10 00:56N 45°41' W 122°46'0 0.0
2017-Nov-10 00:29N 45°41' W 122°46'0 0.0
2017-Nov-09 23:59N 45°41' W 122°46'0 0.0
2017-Nov-09 23:29N 45°41' W 122°46'0 0.1
2017-Nov-09 22:59N 45°41' W 122°46'0 0.1
2017-Nov-09 22:29N 45°41' W 122°46'0 0.0
2017-Nov-09 21:59N 45°41' W 122°46'0 0.0
2017-Nov-09 21:29N 45°41' W 122°46'0 0.0
2017-Nov-09 20:59N 45°41' W 122°46'0 0.0
2017-Nov-09 20:29N 45°41' W 122°46'0 0.0
2017-Nov-09 19:56N 45°41' W 122°46'0 0.0
2017-Nov-09 19:29N 45°41' W 122°46'0 0.0
2017-Nov-09 18:59N 45°41' W 122°46'0 0.1
2017-Nov-09 18:29N 45°41' W 122°46'0 0.0
2017-Nov-09 17:59N 45°41' W 122°46'0 0.0
2017-Nov-09 17:29N 45°41' W 122°46'0 0.0
2017-Nov-09 16:59N 45°41' W 122°46'0 0.0
2017-Nov-09 16:29N 45°41' W 122°46'0 0.0
2017-Nov-09 15:59N 45°41' W 122°46'0 0.0
2017-Nov-09 15:29N 45°41' W 122°46'0 0.0
2017-Nov-09 14:56N 45°41' W 122°46'0 0.1
2017-Nov-09 14:29N 45°41' W 122°46'0 0.0
2017-Nov-09 13:59N 45°41' W 122°46'0 0.0
2017-Nov-09 13:29N 45°41' W 122°46'0 0.1
2017-Nov-09 12:59N 45°41' W 122°46'0 0.0
2017-Nov-09 12:26N 45°41' W 122°46'0 0.0
2017-Nov-09 11:59N 45°41' W 122°46'0 0.0
2017-Nov-09 11:20N 45°41' W 122°46'0 0.1
2017-Nov-09 10:59N 45°41' W 122°46'0 0.1
2017-Nov-09 10:29N 45°41' W 122°46'0 0.0
2017-Nov-09 09:59N 45°41' W 122°46'0 0.0
2017-Nov-09 09:20N 45°41' W 122°46'0 0.1
2017-Nov-09 08:56N 45°41' W 122°46'0 0.0
2017-Nov-09 08:29N 45°41' W 122°46'0 0.0
2017-Nov-09 07:59N 45°41' W 122°46'0 0.0
2017-Nov-09 07:29N 45°41' W 122°46'0 0.0
2017-Nov-09 06:59N 45°41' W 122°46'0 0.0
2017-Nov-09 06:29N 45°41' W 122°46'0 0.0
2017-Nov-09 05:59N 45°41' W 122°46'0 0.0
2017-Nov-09 05:26N 45°41' W 122°46'0 0.1
2017-Nov-09 04:56N 45°41' W 122°46'0 0.0
2017-Nov-09 04:29N 45°41' W 122°46'0 0.2
2017-Nov-09 03:59N 45°41' W 122°46'0 0.2
2017-Nov-09 03:29N 45°41' W 122°46'0 0.2
2017-Nov-09 02:59N 45°41' W 122°46'0 0.1
2017-Nov-09 02:29N 45°41' W 122°46'0 0.1
2017-Nov-09 01:59N 45°41' W 122°46'0 0.1
2017-Nov-09 01:26N 45°41' W 122°46'0 0.0
2017-Nov-09 00:59N 45°41' W 122°46'0 0.0
2017-Nov-09 00:23N 45°41' W 122°46'0 0.0
2017-Nov-08 23:59N 45°41' W 122°46'0 0.1
2017-Nov-08 23:23N 45°41' W 122°46'0 0.1
2017-Nov-08 22:59N 45°41' W 122°46'0 0.0
2017-Nov-08 22:23N 45°41' W 122°46'0 0.0
2017-Nov-08 21:56N 45°41' W 122°46'0 0.0
2017-Nov-08 21:29N 45°41' W 122°46'0 0.0
2017-Nov-08 20:59N 45°41' W 122°46'0 0.0
2017-Nov-08 20:29N 45°41' W 122°46'0 0.0
2017-Nov-08 19:59N 45°41' W 122°46'0 0.0
2017-Nov-08 19:29N 45°41' W 122°46'0 0.0
2017-Nov-08 18:59N 45°41' W 122°46'0 0.0
2017-Nov-08 18:26N 45°41' W 122°46'0 0.1
2017-Nov-08 17:59N 45°41' W 122°46'0 0.1
2017-Nov-08 17:29N 45°41' W 122°46'0 0.0
2017-Nov-08 16:59N 45°41' W 122°46'0 0.0
2017-Nov-08 16:26N 45°41' W 122°46'0 0.1
2017-Nov-08 15:56N 45°41' W 122°46'0 0.1
2017-Nov-08 15:29N 45°41' W 122°46'0 0.0
2017-Nov-08 14:59N 45°41' W 122°46'0 0.1
2017-Nov-08 14:08N 45°41' W 122°46'0 0.3
2017-Nov-08 13:59N 45°41' W 122°46'0 0.0
2017-Nov-08 13:17N 45°41' W 122°46'0 0.0
2017-Nov-08 12:59N 45°41' W 122°46'0 0.0
2017-Nov-08 12:29N 45°41' W 122°46'0 0.0
2017-Nov-08 11:56N 45°41' W 122°46'0 0.0
2017-Nov-08 11:29N 45°41' W 122°46'0 0.0
2017-Nov-08 10:59N 45°41' W 122°46'0 0.0
2017-Nov-08 10:29N 45°41' W 122°46'0 0.0
2017-Nov-08 09:50N 45°41' W 122°46'0 0.0
2017-Nov-08 09:29N 45°41' W 122°46'0 0.0
2017-Nov-08 08:59N 45°41' W 122°46'0 0.0
2017-Nov-08 08:26N 45°41' W 122°46'0 0.0
2017-Nov-08 07:59N 45°41' W 122°46'0 0.0
2017-Nov-08 07:29N 45°41' W 122°46'0 0.0
2017-Nov-08 06:59N 45°41' W 122°46'0 0.0
2017-Nov-08 06:29N 45°41' W 122°46'0 0.0
2017-Nov-08 05:59N 45°41' W 122°46'0 0.0
2017-Nov-08 05:26N 45°41' W 122°46'0 0.0
2017-Nov-08 04:59N 45°41' W 122°46'0 0.0
2017-Nov-08 04:14N 45°41' W 122°46'0 0.0
2017-Nov-08 03:59N 45°41' W 122°46'0 0.1
2017-Nov-08 03:29N 45°41' W 122°46'0 0.1
2017-Nov-08 02:56N 45°41' W 122°46'0 0.0
2017-Nov-08 02:29N 45°41' W 122°46'0 0.0
2017-Nov-08 01:59N 45°41' W 122°46'0 0.0
2017-Nov-08 01:29N 45°41' W 122°46'0 0.1
2017-Nov-08 00:59N 45°41' W 122°46'0 0.0
2017-Nov-08 00:17N 45°41' W 122°46'0 0.0
2017-Nov-07 23:59N 45°41' W 122°46'0 0.0
2017-Nov-07 23:29N 45°41' W 122°46'0 0.0
2017-Nov-07 22:53N 45°41' W 122°46'0 0.0
2017-Nov-07 22:17N 45°41' W 122°46'0 0.0
2017-Nov-07 21:56N 45°41' W 122°46'0 0.0
2017-Nov-07 21:29N 45°41' W 122°46'0 0.0
2017-Nov-07 20:59N 45°41' W 122°46'0 0.0
2017-Nov-07 20:29N 45°41' W 122°46'0 0.0
2017-Nov-07 19:56N 45°41' W 122°46'0 0.0
2017-Nov-07 19:23N 45°41' W 122°46'0 0.0
2017-Nov-07 18:59N 45°41' W 122°46'0 0.1
2017-Nov-07 18:29N 45°41' W 122°46'0 0.0
2017-Nov-07 17:59N 45°41' W 122°46'0 0.0
2017-Nov-07 17:29N 45°41' W 122°46'0 0.0
2017-Nov-07 16:59N 45°41' W 122°46'0 0.0
2017-Nov-07 16:29N 45°41' W 122°46'0 0.2
2017-Nov-07 15:59N 45°41' W 122°46'0 0.2
2017-Nov-07 15:29N 45°41' W 122°46'0 0.1
2017-Nov-07 14:59N 45°41' W 122°46'0 0.2
2017-Nov-07 14:29N 45°41' W 122°46'0 0.1
2017-Nov-07 13:56N 45°41' W 122°46'0 0.0
2017-Nov-07 13:26N 45°41' W 122°46'0 0.0
2017-Nov-07 12:56N 45°41' W 122°46'0 0.0
2017-Nov-07 12:29N 45°41' W 122°46'0 0.0
2017-Nov-07 11:56N 45°41' W 122°46'0 0.0
2017-Nov-07 11:11N 45°41' W 122°46'0 0.0
2017-Nov-07 10:50N 45°41' W 122°46'0 0.0
2017-Nov-07 10:29N 45°41' W 122°46'0 0.0
2017-Nov-07 09:50N 45°41' W 122°46'0 0.0
2017-Nov-07 09:26N 45°41' W 122°46'0 0.0
2017-Nov-07 08:53N 45°41' W 122°46'0 0.0
2017-Nov-07 08:29N 45°41' W 122°46'0 0.0
2017-Nov-07 07:53N 45°41' W 122°46'0 0.0
2017-Nov-07 07:29N 45°41' W 122°46'0 0.0
2017-Nov-07 06:59N 45°41' W 122°46'0 0.0
2017-Nov-07 06:26N 45°41' W 122°46'0 0.0
2017-Nov-07 05:59N 45°41' W 122°46'0 0.0
2017-Nov-07 05:29N 45°41' W 122°46'0 0.0
2017-Nov-07 04:56N 45°41' W 122°46'0 0.0
2017-Nov-07 04:29N 45°41' W 122°46'0 0.0
2017-Nov-07 03:59N 45°41' W 122°46'0 0.0
2017-Nov-07 00:26N 45°41' W 122°46'0 0.1
2017-Nov-06 23:59N 45°41' W 122°46'0 0.1
2017-Nov-06 23:26N 45°41' W 122°46'0 0.0
2017-Nov-06 22:59N 45°41' W 122°46'0 0.0
2017-Nov-06 22:29N 45°41' W 122°46'0 0.0
2017-Nov-06 21:59N 45°41' W 122°46'0 0.0
2017-Nov-06 21:26N 45°41' W 122°46'0 0.0
2017-Nov-06 20:59N 45°41' W 122°46'0 0.0
2017-Nov-06 20:14N 45°41' W 122°46'  

Dump ship's entire track history